createdAt,value
2018-12-22T00:00:23.437Z,0.30
2018-12-22T00:02:55.015Z,0.30
2018-12-22T00:05:26.504Z,0.53
2018-12-22T00:07:58.113Z,0.40
2018-12-22T00:10:29.617Z,0.40
2018-12-22T00:13:01.108Z,0.43
2018-12-22T00:15:32.674Z,0.50
2018-12-22T00:18:04.159Z,0.30
2018-12-22T00:20:36.140Z,0.50
2018-12-22T00:23:07.677Z,0.50
2018-12-22T00:25:39.155Z,0.60
2018-12-22T00:28:10.680Z,0.40
2018-12-22T00:30:42.155Z,0.40
2018-12-22T00:33:15.675Z,0.40
2018-12-22T00:35:47.167Z,0.50
2018-12-22T00:38:18.757Z,0.50
2018-12-22T00:40:50.361Z,0.50
2018-12-22T00:43:21.881Z,0.50
2018-12-22T00:45:53.359Z,0.50
2018-12-22T00:48:24.977Z,0.30
2018-12-22T00:50:56.470Z,0.60
2018-12-22T00:53:28.067Z,0.50
2018-12-22T00:55:59.621Z,0.73
2018-12-22T00:58:31.177Z,0.60
2018-12-22T01:01:02.712Z,0.60
2018-12-22T01:03:34.284Z,0.50
2018-12-22T01:06:05.838Z,0.60
2018-12-22T01:08:37.396Z,0.50
2018-12-22T01:11:09.012Z,0.60
2018-12-22T01:13:40.518Z,0.50
2018-12-22T01:16:12.116Z,0.70
2018-12-22T01:18:43.624Z,0.60
2018-12-22T01:21:15.229Z,0.60
2018-12-22T01:23:46.732Z,0.50
2018-12-22T01:26:18.125Z,0.70
2018-12-22T01:28:49.716Z,0.70
2018-12-22T01:31:21.348Z,0.60
2018-12-22T01:33:52.838Z,0.67
2018-12-22T01:36:24.460Z,0.50
2018-12-22T01:38:55.961Z,0.70
2018-12-22T01:41:27.553Z,0.50
2018-12-22T01:43:59.060Z,0.60
2018-12-22T01:46:30.429Z,0.50
2018-12-22T01:49:01.853Z,0.47
2018-12-22T01:51:33.282Z,0.70
2018-12-22T01:54:04.855Z,0.70
2018-12-22T01:56:36.268Z,0.50
2018-12-22T01:59:07.848Z,0.50
2018-12-22T02:01:39.408Z,0.77
2018-12-22T02:04:10.969Z,0.70
2018-12-22T02:06:42.383Z,0.60
2018-12-22T02:09:13.976Z,0.50
2018-12-22T02:11:45.381Z,0.63
2018-12-22T02:14:16.980Z,0.70
2018-12-22T02:16:48.587Z,0.60
2018-12-22T02:19:20.103Z,0.50
2018-12-22T02:21:51.708Z,0.70
2018-12-22T02:24:23.201Z,0.60
2018-12-22T02:26:54.813Z,0.70
2018-12-22T02:29:26.317Z,0.73
2018-12-22T02:31:57.816Z,0.70
2018-12-22T02:34:29.402Z,0.60
2018-12-22T02:37:00.837Z,0.67
2018-12-22T02:39:32.427Z,0.77
2018-12-22T02:42:04.376Z,0.60
2018-12-22T02:44:35.789Z,0.60
2018-12-22T02:47:07.404Z,0.67
2018-12-22T02:49:39.100Z,0.70
2018-12-22T02:52:10.697Z,0.80
2018-12-22T02:54:42.119Z,0.80
2018-12-22T02:57:13.704Z,0.50
2018-12-22T02:59:45.251Z,0.70
2018-12-22T03:02:16.801Z,0.70
2018-12-22T03:04:48.352Z,0.63
2018-12-22T03:07:19.930Z,0.80
2018-12-22T03:09:51.528Z,0.60
2018-12-22T03:12:23.027Z,0.77
2018-12-22T03:14:54.646Z,0.50
2018-12-22T03:17:26.151Z,0.70
2018-12-22T03:19:57.749Z,0.70
2018-12-22T03:22:29.457Z,0.60
2018-12-22T03:25:01.000Z,0.70
2018-12-22T03:27:32.459Z,0.70
2018-12-22T03:30:04.104Z,0.50
2018-12-22T03:32:35.537Z,0.50
2018-12-22T03:35:07.206Z,0.57
2018-12-22T03:37:38.758Z,0.50
2018-12-22T03:40:10.743Z,0.60
2018-12-22T03:42:42.286Z,0.50
2018-12-22T03:45:13.752Z,0.90
2018-12-22T03:47:45.348Z,0.70
2018-12-22T03:50:16.867Z,0.60
2018-12-22T03:52:48.349Z,0.77
2018-12-22T03:55:19.950Z,0.50
2018-12-22T03:57:51.501Z,0.57
2018-12-22T04:00:23.052Z,0.53
2018-12-22T04:02:54.611Z,0.80
2018-12-22T04:05:26.166Z,0.50
2018-12-22T04:07:57.536Z,0.70
2018-12-22T04:10:29.076Z,0.50
2018-12-22T04:13:00.530Z,0.80
2018-12-22T04:15:32.242Z,0.80
2018-12-22T04:18:03.765Z,0.90
2018-12-22T04:20:35.242Z,0.80
2018-12-22T04:23:06.759Z,1.10
2018-12-22T04:25:38.349Z,0.90
2018-12-22T04:28:09.855Z,1.03
2018-12-22T04:30:41.399Z,0.87
2018-12-22T04:33:12.856Z,1.10
2018-12-22T04:35:44.408Z,1.10
2018-12-22T04:38:15.877Z,0.60
2018-12-22T04:40:47.402Z,1.10
2018-12-22T04:43:18.868Z,0.83
2018-12-22T04:45:50.414Z,0.60
2018-12-22T04:48:21.877Z,0.90
2018-12-22T04:50:53.416Z,1.00
2018-12-22T04:53:24.840Z,1.50
2018-12-22T04:55:56.448Z,1.03
2018-12-22T04:58:28.097Z,1.10
2018-12-22T05:00:59.733Z,1.30
2018-12-22T05:03:31.149Z,1.20
2018-12-22T05:06:02.739Z,1.10
2018-12-22T05:08:34.204Z,0.67
2018-12-22T05:11:05.840Z,1.10
2018-12-22T05:13:37.253Z,1.20
2018-12-22T05:16:09.016Z,1.10
2018-12-22T05:18:40.670Z,0.80
2018-12-22T05:21:12.175Z,1.33
2018-12-22T05:23:43.878Z,0.90
2018-12-22T05:26:15.391Z,0.87
2018-12-22T05:28:46.987Z,1.17
2018-12-22T05:31:18.494Z,0.60
2018-12-22T05:33:49.894Z,0.70
2018-12-22T05:36:21.476Z,0.73
2018-12-22T05:38:53.098Z,0.50
2018-12-22T05:41:24.590Z,0.40
2018-12-22T05:43:56.214Z,0.40
2018-12-22T05:46:27.721Z,0.40
2018-12-22T05:48:59.314Z,0.40
2018-12-22T05:51:30.813Z,0.50
2018-12-22T05:54:02.424Z,0.40
2018-12-22T05:56:33.916Z,0.53
2018-12-22T05:59:05.570Z,0.43
2018-12-22T06:01:37.295Z,0.50
2018-12-22T06:04:08.885Z,0.70
2018-12-22T06:06:40.354Z,0.80
2018-12-22T06:09:11.894Z,0.70
2018-12-22T06:11:43.356Z,0.73
2018-12-22T06:14:14.894Z,0.80
2018-12-22T06:16:46.372Z,0.80
2018-12-22T06:19:17.902Z,0.80
2018-12-22T06:21:49.363Z,0.90
2018-12-22T06:24:21.008Z,0.50
2018-12-22T06:26:52.463Z,0.77
2018-12-22T06:29:24.079Z,0.70
2018-12-22T06:31:55.592Z,0.50
2018-12-22T06:34:27.121Z,0.70
2018-12-22T06:36:58.594Z,0.90
2018-12-22T06:39:30.175Z,0.80
2018-12-22T06:42:01.596Z,3.80
2018-12-22T06:44:33.199Z,2.63
2018-12-22T06:47:04.701Z,0.60
2018-12-22T06:49:36.303Z,1.00
2018-12-22T06:52:07.806Z,0.70
2018-12-22T06:54:39.451Z,0.73
2018-12-22T06:57:10.994Z,0.60
2018-12-22T06:59:42.728Z,0.90
2018-12-22T07:02:14.232Z,0.70
2018-12-22T07:04:45.830Z,1.00
2018-12-22T07:07:17.347Z,0.80
2018-12-22T07:09:48.880Z,1.33
2018-12-22T07:12:20.344Z,0.60
2018-12-22T07:14:51.875Z,0.90
2018-12-22T07:17:23.352Z,0.80
2018-12-22T07:19:54.895Z,0.60
2018-12-22T07:22:26.398Z,1.10
2018-12-22T07:24:58.185Z,0.70
2018-12-22T07:27:29.616Z,0.70
2018-12-22T07:30:01.208Z,0.70
2018-12-22T07:32:32.609Z,0.90
2018-12-22T07:35:04.170Z,0.73
2018-12-22T07:37:35.674Z,1.03
2018-12-22T07:40:07.420Z,0.80
2018-12-22T07:42:39.522Z,1.20
2018-12-22T07:45:11.187Z,1.03
2018-12-22T07:47:42.688Z,0.80
2018-12-22T07:50:14.244Z,0.70
2018-12-22T07:52:51.623Z,0.77
2018-12-22T07:55:19.468Z,0.63
2018-12-22T07:57:50.963Z,0.43
2018-12-22T08:00:22.471Z,0.70
2018-12-22T08:02:53.982Z,0.67
2018-12-22T08:05:25.581Z,0.40
2018-12-22T08:07:56.986Z,0.67
2018-12-22T08:10:28.586Z,0.47
2018-12-22T08:13:00.089Z,0.63
2018-12-22T08:15:31.497Z,0.47
2018-12-22T08:18:02.991Z,0.50
2018-12-22T08:20:34.533Z,0.40
2018-12-22T08:23:06.086Z,0.53
2018-12-22T08:25:37.504Z,0.50
2018-12-22T08:28:09.094Z,0.63
2018-12-22T08:30:43.632Z,1.00
2018-12-22T08:33:14.072Z,0.60
2018-12-22T08:35:45.703Z,0.60
2018-12-22T08:38:17.128Z,0.60
2018-12-22T08:40:48.716Z,0.50
2018-12-22T08:43:21.083Z,0.70
2018-12-22T08:45:52.631Z,0.80
2018-12-22T08:48:24.193Z,0.93
2018-12-22T08:50:55.743Z,0.50
2018-12-22T08:53:27.296Z,0.63
2018-12-22T08:55:58.859Z,0.60
2018-12-22T08:58:30.397Z,1.43
2018-12-22T09:01:01.972Z,3.00
2018-12-22T09:03:33.418Z,7.40
2018-12-22T09:06:05.023Z,1.70
2018-12-22T09:08:36.516Z,2.70
2018-12-22T09:11:08.131Z,1.00
2018-12-22T09:13:39.643Z,0.77
2018-12-22T09:16:11.240Z,0.80
2018-12-22T09:18:42.752Z,2.60
2018-12-22T09:21:14.290Z,1.30
2018-12-22T09:23:45.974Z,2.37
2018-12-22T09:26:17.714Z,2.60
2018-12-22T09:28:49.217Z,3.13
2018-12-22T09:31:20.821Z,4.47
2018-12-22T09:33:52.430Z,1.93
2018-12-22T09:36:23.943Z,2.33
2018-12-22T09:38:55.735Z,1.57
2018-12-22T09:41:27.252Z,1.00
2018-12-22T09:43:58.852Z,1.20
2018-12-22T09:46:30.347Z,2.23
2018-12-22T09:49:01.947Z,2.70
2018-12-22T09:51:33.457Z,1.30
2018-12-22T09:54:05.052Z,2.33
2018-12-22T09:56:36.553Z,0.70
2018-12-22T09:59:08.183Z,1.43
2018-12-22T10:01:39.681Z,2.37
2018-12-22T10:04:11.960Z,2.20
2018-12-22T10:06:43.553Z,3.23
2018-12-22T10:09:15.058Z,1.10
2018-12-22T10:11:46.590Z,1.50
2018-12-22T10:14:18.056Z,0.90
2018-12-22T10:16:49.604Z,1.20
2018-12-22T10:19:21.057Z,1.00
2018-12-22T10:21:52.664Z,1.87
2018-12-22T10:24:24.177Z,0.60
2018-12-22T10:26:55.778Z,0.90
2018-12-22T10:29:27.280Z,0.63
2018-12-22T10:31:58.881Z,0.60
2018-12-22T10:34:30.460Z,0.70
2018-12-22T10:37:02.026Z,0.60
2018-12-22T10:39:34.268Z,0.70
2018-12-22T10:42:05.772Z,0.83
2018-12-22T10:44:37.305Z,0.80
2018-12-22T10:47:09.224Z,0.60
2018-12-22T10:49:40.823Z,0.97
2018-12-22T10:52:12.438Z,0.90
2018-12-22T10:54:43.956Z,0.70
2018-12-22T10:57:15.382Z,0.70
2018-12-22T10:59:46.945Z,0.73
2018-12-22T11:02:18.358Z,0.70
2018-12-22T11:04:49.938Z,0.80
2018-12-22T11:07:21.564Z,0.73
2018-12-22T11:09:53.576Z,0.80
2018-12-22T11:12:25.115Z,0.50
2018-12-22T11:14:56.738Z,0.60
2018-12-22T11:17:28.324Z,0.60
2018-12-22T11:19:59.734Z,0.90
2018-12-22T11:22:31.334Z,0.70
2018-12-22T11:25:05.010Z,0.83
2018-12-22T11:27:36.561Z,1.47
2018-12-22T11:30:13.524Z,1.10
2018-12-22T11:32:45.042Z,1.00
2018-12-22T11:35:16.636Z,0.90
2018-12-22T11:37:48.140Z,1.00
2018-12-22T11:40:19.680Z,0.70
2018-12-22T11:42:51.165Z,1.67
2018-12-22T11:45:22.747Z,1.20
2018-12-22T11:48:15.454Z,0.87
2018-12-22T11:50:46.992Z,0.90
2018-12-22T11:53:18.545Z,0.80
2018-12-22T11:55:49.959Z,0.73
2018-12-22T11:58:21.550Z,0.70
2018-12-22T12:00:52.995Z,0.90
2018-12-22T12:03:24.553Z,1.30
2018-12-22T12:05:56.177Z,1.03
2018-12-22T12:08:27.673Z,1.20
2018-12-22T12:11:00.514Z,0.80
2018-12-22T12:13:32.120Z,0.60
2018-12-22T12:16:21.463Z,0.70
2018-12-22T12:19:31.635Z,0.50
2018-12-22T12:22:03.066Z,1.10
2018-12-22T12:24:34.624Z,0.70
2018-12-22T12:27:06.421Z,0.80
2018-12-22T12:29:38.056Z,2.17
2018-12-22T12:32:09.719Z,0.60
2018-12-22T12:34:41.163Z,0.40
2018-12-22T12:37:12.703Z,0.40
2018-12-22T12:39:44.331Z,0.60
2018-12-22T12:42:16.314Z,0.77
2018-12-22T12:44:47.914Z,1.07
2018-12-22T12:47:19.523Z,0.80
2018-12-22T12:49:51.008Z,1.10
2018-12-22T12:52:22.614Z,1.00
2018-12-22T12:54:54.130Z,0.70
2018-12-22T12:57:27.109Z,0.60
2018-12-22T12:59:58.762Z,2.07
2018-12-22T13:02:30.163Z,1.30
2018-12-22T13:05:01.752Z,1.40
2018-12-22T13:07:33.170Z,1.93
2018-12-22T13:10:04.998Z,1.73
2018-12-22T13:12:58.282Z,1.30
2018-12-22T13:15:29.642Z,0.80
2018-12-22T13:18:01.229Z,1.03
2018-12-22T13:20:32.783Z,0.80
2018-12-22T13:23:04.379Z,0.73
2018-12-22T13:25:35.751Z,1.50
2018-12-22T13:28:07.351Z,1.50
2018-12-22T13:30:38.759Z,1.10
2018-12-22T13:33:10.617Z,1.00
2018-12-22T13:35:42.279Z,0.90
2018-12-22T13:38:13.765Z,1.20
2018-12-22T13:40:45.525Z,0.73
2018-12-22T13:43:16.994Z,1.10
2018-12-22T13:45:48.551Z,1.03
2018-12-22T13:48:20.302Z,0.80
2018-12-22T13:50:52.162Z,0.53
2018-12-22T13:53:23.875Z,0.60
2018-12-22T13:55:55.375Z,0.90
2018-12-22T13:58:28.210Z,0.90
2018-12-22T14:00:59.765Z,0.77
2018-12-22T14:03:37.117Z,1.00
2018-12-22T14:06:17.505Z,1.20
2018-12-22T14:08:49.013Z,1.63
2018-12-22T14:11:20.614Z,1.17
2018-12-22T14:13:52.119Z,1.33
2018-12-22T14:16:40.923Z,1.20
2018-12-22T14:19:14.163Z,1.27
2018-12-22T14:21:45.713Z,1.60
2018-12-22T14:24:53.220Z,3.50
2018-12-22T14:27:24.655Z,4.73
2018-12-22T14:29:56.218Z,8.10
2018-12-22T14:32:27.842Z,6.53
2018-12-22T14:35:53.765Z,11.23
2018-12-22T14:38:25.308Z,6.10
2018-12-22T14:40:56.810Z,5.07
2018-12-22T14:43:28.353Z,8.17
2018-12-22T14:45:59.990Z,9.03
2018-12-22T14:48:31.492Z,11.20
2018-12-22T14:51:03.121Z,11.43
2018-12-22T14:53:34.597Z,11.87
2018-12-22T14:56:06.454Z,5.17
2018-12-22T14:58:38.817Z,3.03
2018-12-22T15:01:10.433Z,1.53
2018-12-22T15:03:41.930Z,1.20
2018-12-22T15:06:13.334Z,1.50
2018-12-22T15:08:44.919Z,1.37
2018-12-22T15:11:16.479Z,1.10
2018-12-22T15:13:48.028Z,1.10
2018-12-22T15:16:19.450Z,0.97
2018-12-22T15:18:51.037Z,1.30
2018-12-22T15:21:22.664Z,1.00
2018-12-22T15:23:54.154Z,2.57
2018-12-22T15:26:25.759Z,2.10
2018-12-22T15:28:57.270Z,2.70
2018-12-22T15:31:28.666Z,2.67
2018-12-22T15:34:00.271Z,2.30
2018-12-22T15:36:31.929Z,3.00
2018-12-22T15:39:04.258Z,2.60
2018-12-22T15:41:37.563Z,2.47
2018-12-22T15:44:09.226Z,3.13
2018-12-22T15:46:40.852Z,2.70
2018-12-22T15:49:13.352Z,2.80
2018-12-22T15:51:44.826Z,3.57
2018-12-22T15:54:16.378Z,2.80
2018-12-22T15:56:47.795Z,3.27
2018-12-22T15:59:19.371Z,3.57
2018-12-22T16:01:50.800Z,2.90
2018-12-22T16:04:22.375Z,3.70
2018-12-22T16:06:54.003Z,2.20
2018-12-22T16:09:25.484Z,3.37
2018-12-22T16:11:57.149Z,2.50
2018-12-22T16:14:28.575Z,2.77
2018-12-22T16:17:00.157Z,2.30
2018-12-22T16:19:31.562Z,1.57
2018-12-22T16:22:03.162Z,1.50
2018-12-22T16:24:34.571Z,1.07
2018-12-22T16:27:06.167Z,1.70
2018-12-22T16:29:43.040Z,2.53
2018-12-22T16:32:14.456Z,3.70
2018-12-22T16:34:46.051Z,3.93
2018-12-22T16:37:17.604Z,2.37
2018-12-22T16:39:49.143Z,1.80
2018-12-22T16:42:20.769Z,1.40
2018-12-22T16:44:52.284Z,2.03
2018-12-22T16:47:23.877Z,2.30
2018-12-22T16:49:55.285Z,2.57
2018-12-22T16:52:26.683Z,1.50
2018-12-22T16:54:58.278Z,2.07
2018-12-22T16:57:29.891Z,1.70
2018-12-22T17:00:01.398Z,1.90
2018-12-22T17:02:54.012Z,2.80
2018-12-22T17:05:25.542Z,2.40
2018-12-22T17:07:56.913Z,1.70
2018-12-22T17:10:34.587Z,2.00
2018-12-22T17:13:06.190Z,1.60
2018-12-22T17:15:39.466Z,2.07
2018-12-22T17:18:11.099Z,1.90
2018-12-22T17:20:42.618Z,1.80
2018-12-22T17:23:37.034Z,2.13
2018-12-22T17:26:10.361Z,2.73
2018-12-22T17:28:41.936Z,1.80
2018-12-22T17:31:13.379Z,1.90
2018-12-22T17:33:44.932Z,1.77
2018-12-22T17:36:16.367Z,1.93
2018-12-22T17:38:48.042Z,1.30
2018-12-22T17:41:19.620Z,1.33
2018-12-22T17:43:51.477Z,1.20
2018-12-22T17:46:23.218Z,1.30
2018-12-22T17:48:54.674Z,1.20
2018-12-22T17:51:26.235Z,1.10
2018-12-22T17:53:57.687Z,0.90
2018-12-22T17:56:29.198Z,0.97
2018-12-22T17:59:00.693Z,0.97
2018-12-22T18:01:32.308Z,0.77
2018-12-22T18:04:03.798Z,0.83
2018-12-22T18:06:35.398Z,0.60
2018-12-22T18:09:08.096Z,1.00
2018-12-22T18:11:39.539Z,0.80
2018-12-22T18:14:11.127Z,1.20
2018-12-22T18:16:42.541Z,1.10
2018-12-22T18:19:14.130Z,1.00
2018-12-22T18:21:45.547Z,1.10
2018-12-22T18:24:17.127Z,1.40
2018-12-22T18:26:48.756Z,0.70
2018-12-22T18:29:20.272Z,0.80
2018-12-22T18:31:51.865Z,0.90
2018-12-22T18:34:23.383Z,0.60
2018-12-22T18:36:54.969Z,1.00
2018-12-22T18:39:27.504Z,1.03
2018-12-22T18:41:58.954Z,0.80
2018-12-22T18:44:30.547Z,1.00
2018-12-22T18:47:02.053Z,0.70
2018-12-22T18:49:33.806Z,0.90
2018-12-22T18:52:05.390Z,1.10
2018-12-22T18:54:37.035Z,1.00
2018-12-22T18:57:08.711Z,0.70
2018-12-22T18:59:40.318Z,1.07
2018-12-22T19:02:11.945Z,0.93
2018-12-22T19:04:43.453Z,1.07
2018-12-22T19:07:14.850Z,1.53
2018-12-22T19:09:49.266Z,1.47
2018-12-22T19:12:21.124Z,1.00
2018-12-22T19:14:54.624Z,1.07
2018-12-22T19:17:26.131Z,1.07
2018-12-22T19:19:57.729Z,1.10
2018-12-22T19:22:29.217Z,0.90
2018-12-22T19:25:00.837Z,0.80
2018-12-22T19:27:32.332Z,1.80
2018-12-22T19:30:03.964Z,1.60
2018-12-22T19:32:35.446Z,1.20
2018-12-22T19:35:07.435Z,1.40
2018-12-22T19:37:38.827Z,1.17
2018-12-22T19:40:10.452Z,1.27
2018-12-22T19:42:41.818Z,1.10
2018-12-22T19:45:13.563Z,1.67
2018-12-22T19:47:44.935Z,1.00
2018-12-22T19:50:16.515Z,1.00
2018-12-22T19:52:48.141Z,1.10
2018-12-22T19:55:19.644Z,1.30
2018-12-22T19:57:51.248Z,1.60
2018-12-22T20:00:22.746Z,1.20
2018-12-22T20:02:54.359Z,1.53
2018-12-22T20:05:25.865Z,1.00
2018-12-22T20:07:57.464Z,1.10
2018-12-22T20:10:28.969Z,1.20
2018-12-22T20:13:00.471Z,1.00
2018-12-22T20:15:32.063Z,1.33
2018-12-22T20:18:03.621Z,1.17
2018-12-22T20:20:35.062Z,1.30
2018-12-22T20:23:06.690Z,1.57
2018-12-22T20:25:38.187Z,1.30
2018-12-22T20:28:09.792Z,1.20
2018-12-22T20:30:41.301Z,1.60
2018-12-22T20:33:12.907Z,2.13
2018-12-22T20:35:44.394Z,1.40
2018-12-22T20:38:15.947Z,1.37
2018-12-22T20:40:47.497Z,1.00
2018-12-22T20:43:19.109Z,1.17
2018-12-22T20:45:50.597Z,1.00
2018-12-22T20:48:22.023Z,1.00
2018-12-22T20:50:53.608Z,1.20
2018-12-22T20:53:25.083Z,1.07
2018-12-22T20:55:56.822Z,1.03
2018-12-22T20:58:28.389Z,0.93
2018-12-22T21:00:59.932Z,1.20
2018-12-22T21:03:42.098Z,0.90
2018-12-22T21:06:20.626Z,1.00
2018-12-22T21:08:52.191Z,1.40
2018-12-22T21:11:23.638Z,1.30
2018-12-22T21:13:55.220Z,0.93
2018-12-22T21:16:26.767Z,1.20
2018-12-22T21:18:58.314Z,1.03
2018-12-22T21:21:29.830Z,1.33
2018-12-22T21:24:01.427Z,1.07
2018-12-22T21:26:32.842Z,1.10
2018-12-22T21:29:04.464Z,1.60
2018-12-22T21:31:35.947Z,1.03
2018-12-22T21:34:07.450Z,1.40
2018-12-22T21:36:39.051Z,0.90
2018-12-22T21:39:10.575Z,1.03
2018-12-22T21:41:42.155Z,1.50
2018-12-22T21:44:13.566Z,1.70
2018-12-22T21:46:45.106Z,0.90
2018-12-22T21:49:16.648Z,1.30
2018-12-22T21:51:48.096Z,2.23
2018-12-22T21:54:19.573Z,1.27
2018-12-22T21:56:50.980Z,1.47
2018-12-22T21:59:22.567Z,1.00
2018-12-22T22:01:55.827Z,1.20
2018-12-22T22:04:27.310Z,0.90
2018-12-22T22:06:58.862Z,1.10
2018-12-22T22:09:30.329Z,1.30
2018-12-22T22:12:01.977Z,1.43
2018-12-22T22:14:33.380Z,1.33
2018-12-22T22:17:04.904Z,1.53
2018-12-22T22:19:36.347Z,1.73
2018-12-22T22:22:07.887Z,1.43
2018-12-22T22:24:39.354Z,1.30
2018-12-22T22:27:11.000Z,1.20
2018-12-22T22:29:42.460Z,1.40
2018-12-22T22:32:13.987Z,1.60
2018-12-22T22:34:45.785Z,1.90
2018-12-22T22:37:17.503Z,1.20
2018-12-22T22:39:49.131Z,1.00
2018-12-22T22:42:20.633Z,1.80
2018-12-22T22:44:52.235Z,1.33
2018-12-22T22:47:23.637Z,2.50
2018-12-22T22:49:55.239Z,1.30
2018-12-22T22:52:26.746Z,1.33
2018-12-22T22:54:58.447Z,1.73
2018-12-22T22:57:30.161Z,1.43
2018-12-22T23:00:01.813Z,1.50
2018-12-22T23:02:33.378Z,1.37
2018-12-22T23:05:04.976Z,1.07
2018-12-22T23:07:36.777Z,1.67
2018-12-22T23:10:08.844Z,1.27
2018-12-22T23:12:40.391Z,1.27
2018-12-22T23:15:11.949Z,1.73
2018-12-22T23:17:43.504Z,1.03
2018-12-22T23:20:14.967Z,1.33
2018-12-22T23:22:46.504Z,0.90
2018-12-22T23:25:17.968Z,0.93
2018-12-22T23:27:49.523Z,1.40
2018-12-22T23:30:20.982Z,1.20
2018-12-22T23:32:52.564Z,1.57
2018-12-22T23:35:23.986Z,1.60
2018-12-22T23:37:55.578Z,1.13
2018-12-22T23:40:26.979Z,1.03
2018-12-22T23:42:58.592Z,1.27
2018-12-22T23:45:30.104Z,1.40
2018-12-22T23:48:01.706Z,1.40
2018-12-22T23:50:33.190Z,1.50
2018-12-22T23:53:04.808Z,1.10
2018-12-22T23:55:36.311Z,1.47
2018-12-22T23:58:07.914Z,1.37
